sensor_id;sensor_type;location;lat;lon;timestamp;P1;durP1;ratioP1;P2;durP2;ratioP2
22881;SDS011;11608;50.894;5.296;2023-06-26T00:02:15;24.40;;;22.60;;
22881;SDS011;11608;50.894;5.296;2023-06-26T00:04:43;24.15;;;22.45;;
22881;SDS011;11608;50.894;5.296;2023-06-26T00:07:10;24.63;;;22.73;;
22881;SDS011;11608;50.894;5.296;2023-06-26T00:09:38;24.00;;;22.27;;
22881;SDS011;11608;50.894;5.296;2023-06-26T00:12:05;23.45;;;21.85;;
22881;SDS011;11608;50.894;5.296;2023-06-26T00:14:31;24.20;;;22.30;;
22881;SDS011;11608;50.894;5.296;2023-06-26T00:16:57;24.35;;;22.48;;
22881;SDS011;11608;50.894;5.296;2023-06-26T00:19:23;24.27;;;22.48;;
22881;SDS011;11608;50.894;5.296;2023-06-26T00:21:58;23.63;;;22.02;;
22881;SDS011;11608;50.894;5.296;2023-06-26T00:24:24;24.17;;;22.48;;
22881;SDS011;11608;50.894;5.296;2023-06-26T00:26:52;24.48;;;22.67;;
22881;SDS011;11608;50.894;5.296;2023-06-26T00:29:20;22.27;;;20.67;;
22881;SDS011;11608;50.894;5.296;2023-06-26T00:31:47;24.25;;;22.42;;
22881;SDS011;11608;50.894;5.296;2023-06-26T00:34:15;23.83;;;21.90;;
22881;SDS011;11608;50.894;5.296;2023-06-26T00:36:41;23.52;;;21.83;;
22881;SDS011;11608;50.894;5.296;2023-06-26T00:39:10;24.05;;;22.35;;
22881;SDS011;11608;50.894;5.296;2023-06-26T00:41:37;24.50;;;22.63;;
22881;SDS011;11608;50.894;5.296;2023-06-26T00:44:04;24.77;;;22.95;;
22881;SDS011;11608;50.894;5.296;2023-06-26T00:46:30;24.75;;;23.05;;
22881;SDS011;11608;50.894;5.296;2023-06-26T00:48:57;24.23;;;22.33;;
22881;SDS011;11608;50.894;5.296;2023-06-26T00:51:25;24.50;;;22.67;;
22881;SDS011;11608;50.894;5.296;2023-06-26T00:53:51;24.48;;;22.42;;
22881;SDS011;11608;50.894;5.296;2023-06-26T00:56:17;24.83;;;23.02;;
22881;SDS011;11608;50.894;5.296;2023-06-26T00:58:43;24.65;;;22.95;;
22881;SDS011;11608;50.894;5.296;2023-06-26T01:01:18;24.83;;;22.90;;
22881;SDS011;11608;50.894;5.296;2023-06-26T01:03:47;23.88;;;21.88;;
22881;SDS011;11608;50.894;5.296;2023-06-26T01:06:17;24.85;;;22.73;;
22881;SDS011;11608;50.894;5.296;2023-06-26T01:08:43;24.30;;;22.50;;
22881;SDS011;11608;50.894;5.296;2023-06-26T01:11:10;25.58;;;23.40;;
22881;SDS011;11608;50.894;5.296;2023-06-26T01:13:38;25.05;;;23.25;;
22881;SDS011;11608;50.894;5.296;2023-06-26T01:16:05;24.88;;;23.08;;
22881;SDS011;11608;50.894;5.296;2023-06-26T01:18:32;24.45;;;22.55;;
22881;SDS011;11608;50.894;5.296;2023-06-26T01:20:58;26.30;;;24.20;;
22881;SDS011;11608;50.894;5.296;2023-06-26T01:23:42;23.80;;;22.10;;
22881;SDS011;11608;50.894;5.296;2023-06-26T01:28:43;25.65;;;23.52;;
22881;SDS011;11608;50.894;5.296;2023-06-26T01:31:10;24.27;;;22.25;;
22881;SDS011;11608;50.894;5.296;2023-06-26T01:33:37;24.20;;;22.33;;
22881;SDS011;11608;50.894;5.296;2023-06-26T01:36:06;25.20;;;23.27;;
22881;SDS011;11608;50.894;5.296;2023-06-26T01:38:32;24.42;;;22.67;;
22881;SDS011;11608;50.894;5.296;2023-06-26T01:41:02;23.33;;;21.73;;
22881;SDS011;11608;50.894;5.296;2023-06-26T01:48:49;24.08;;;22.20;;
22881;SDS011;11608;50.894;5.296;2023-06-26T01:51:19;24.23;;;22.42;;
22881;SDS011;11608;50.894;5.296;2023-06-26T01:53:50;23.98;;;22.17;;
22881;SDS011;11608;50.894;5.296;2023-06-26T01:56:18;24.42;;;22.50;;
22881;SDS011;11608;50.894;5.296;2023-06-26T01:58:47;24.25;;;22.42;;
22881;SDS011;11608;50.894;5.296;2023-06-26T02:01:13;23.98;;;22.00;;
22881;SDS011;11608;50.894;5.296;2023-06-26T02:03:41;22.65;;;21.05;;
22881;SDS011;11608;50.894;5.296;2023-06-26T02:06:07;23.55;;;21.70;;
22881;SDS011;11608;50.894;5.296;2023-06-26T02:08:34;22.27;;;20.52;;
22881;SDS011;11608;50.894;5.296;2023-06-26T02:11:00;22.75;;;21.13;;
22881;SDS011;11608;50.894;5.296;2023-06-26T02:13:26;22.73;;;20.75;;
22881;SDS011;11608;50.894;5.296;2023-06-26T02:15:52;22.23;;;20.63;;
22881;SDS011;11608;50.894;5.296;2023-06-26T02:18:20;22.65;;;20.95;;
22881;SDS011;11608;50.894;5.296;2023-06-26T02:20:47;22.63;;;20.92;;
22881;SDS011;11608;50.894;5.296;2023-06-26T02:23:13;22.67;;;21.08;;
22881;SDS011;11608;50.894;5.296;2023-06-26T02:25:39;22.05;;;20.50;;
22881;SDS011;11608;50.894;5.296;2023-06-26T02:28:06;22.05;;;20.40;;
22881;SDS011;11608;50.894;5.296;2023-06-26T02:30:32;22.30;;;20.67;;
22881;SDS011;11608;50.894;5.296;2023-06-26T02:33:05;22.63;;;21.00;;
22881;SDS011;11608;50.894;5.296;2023-06-26T02:35:32;20.95;;;19.35;;
22881;SDS011;11608;50.894;5.296;2023-06-26T02:37:58;21.27;;;19.77;;
22881;SDS011;11608;50.894;5.296;2023-06-26T02:40:24;21.38;;;19.88;;
22881;SDS011;11608;50.894;5.296;2023-06-26T02:42:50;22.60;;;20.63;;
22881;SDS011;11608;50.894;5.296;2023-06-26T02:45:16;21.35;;;19.85;;
22881;SDS011;11608;50.894;5.296;2023-06-26T02:47:42;21.88;;;20.17;;
22881;SDS011;11608;50.894;5.296;2023-06-26T02:50:08;21.38;;;19.77;;
22881;SDS011;11608;50.894;5.296;2023-06-26T02:52:34;21.13;;;19.45;;
22881;SDS011;11608;50.894;5.296;2023-06-26T02:55:00;21.77;;;20.02;;
22881;SDS011;11608;50.894;5.296;2023-06-26T02:57:26;20.65;;;19.08;;
22881;SDS011;11608;50.894;5.296;2023-06-26T02:59:55;22.30;;;20.52;;
22881;SDS011;11608;50.894;5.296;2023-06-26T03:02:21;21.90;;;19.90;;
22881;SDS011;11608;50.894;5.296;2023-06-26T03:04:47;22.50;;;20.63;;
22881;SDS011;11608;50.894;5.296;2023-06-26T03:07:14;22.70;;;20.80;;
22881;SDS011;11608;50.894;5.296;2023-06-26T03:09:42;21.70;;;20.00;;
22881;SDS011;11608;50.894;5.296;2023-06-26T03:12:08;21.35;;;19.48;;
22881;SDS011;11608;50.894;5.296;2023-06-26T03:14:34;21.38;;;19.67;;
22881;SDS011;11608;50.894;5.296;2023-06-26T03:17:03;21.73;;;20.02;;
22881;SDS011;11608;50.894;5.296;2023-06-26T03:19:29;21.38;;;19.80;;
22881;SDS011;11608;50.894;5.296;2023-06-26T03:21:55;21.80;;;19.92;;
22881;SDS011;11608;50.894;5.296;2023-06-26T03:24:21;21.50;;;19.60;;
22881;SDS011;11608;50.894;5.296;2023-06-26T03:26:47;21.30;;;19.77;;
22881;SDS011;11608;50.894;5.296;2023-06-26T03:29:13;21.60;;;19.98;;
22881;SDS011;11608;50.894;5.296;2023-06-26T03:31:39;20.83;;;19.10;;
22881;SDS011;11608;50.894;5.296;2023-06-26T03:34:08;22.35;;;20.42;;
22881;SDS011;11608;50.894;5.296;2023-06-26T03:36:37;21.40;;;19.90;;
22881;SDS011;11608;50.894;5.296;2023-06-26T03:39:03;22.17;;;20.48;;
22881;SDS011;11608;50.894;5.296;2023-06-26T03:41:29;22.15;;;20.40;;
22881;SDS011;11608;50.894;5.296;2023-06-26T03:43:58;21.33;;;19.55;;
22881;SDS011;11608;50.894;5.296;2023-06-26T03:46:25;22.00;;;20.20;;
22881;SDS011;11608;50.894;5.296;2023-06-26T03:48:51;22.15;;;20.02;;
22881;SDS011;11608;50.894;5.296;2023-06-26T03:51:17;22.00;;;20.23;;
22881;SDS011;11608;50.894;5.296;2023-06-26T03:53:51;21.40;;;19.70;;
22881;SDS011;11608;50.894;5.296;2023-06-26T03:56:17;21.88;;;19.85;;
22881;SDS011;11608;50.894;5.296;2023-06-26T03:58:43;21.70;;;19.98;;
22881;SDS011;11608;50.894;5.296;2023-06-26T04:01:11;21.80;;;19.80;;
22881;SDS011;11608;50.894;5.296;2023-06-26T04:03:37;21.60;;;19.73;;
22881;SDS011;11608;50.894;5.296;2023-06-26T04:06:03;21.58;;;19.92;;
22881;SDS011;11608;50.894;5.296;2023-06-26T04:08:30;22.25;;;20.45;;
22881;SDS011;11608;50.894;5.296;2023-06-26T04:10:56;20.80;;;19.10;;
22881;SDS011;11608;50.894;5.296;2023-06-26T04:13:23;21.15;;;19.33;;
22881;SDS011;11608;50.894;5.296;2023-06-26T04:15:49;21.08;;;19.33;;
22881;SDS011;11608;50.894;5.296;2023-06-26T04:18:15;21.65;;;19.92;;
22881;SDS011;11608;50.894;5.296;2023-06-26T04:21:03;21.35;;;19.35;;
22881;SDS011;11608;50.894;5.296;2023-06-26T04:23:27;21.00;;;19.42;;
22881;SDS011;11608;50.894;5.296;2023-06-26T04:25:53;22.02;;;20.33;;
22881;SDS011;11608;50.894;5.296;2023-06-26T04:28:19;21.30;;;19.60;;
22881;SDS011;11608;50.894;5.296;2023-06-26T04:30:45;21.52;;;19.50;;
22881;SDS011;11608;50.894;5.296;2023-06-26T04:33:11;20.88;;;19.15;;
22881;SDS011;11608;50.894;5.296;2023-06-26T04:35:38;20.55;;;18.85;;
22881;SDS011;11608;50.894;5.296;2023-06-26T04:38:04;21.75;;;19.75;;
22881;SDS011;11608;50.894;5.296;2023-06-26T04:40:30;21.00;;;19.30;;
22881;SDS011;11608;50.894;5.296;2023-06-26T04:42:56;20.80;;;19.08;;
22881;SDS011;11608;50.894;5.296;2023-06-26T04:45:24;21.23;;;19.52;;
22881;SDS011;11608;50.894;5.296;2023-06-26T04:47:50;21.40;;;19.58;;
22881;SDS011;11608;50.894;5.296;2023-06-26T04:50:16;21.48;;;19.50;;
22881;SDS011;11608;50.894;5.296;2023-06-26T04:52:44;20.60;;;18.80;;
22881;SDS011;11608;50.894;5.296;2023-06-26T04:55:10;20.83;;;19.17;;
22881;SDS011;11608;50.894;5.296;2023-06-26T04:57:36;21.27;;;19.27;;
22881;SDS011;11608;50.894;5.296;2023-06-26T05:00:03;22.15;;;19.98;;
22881;SDS011;11608;50.894;5.296;2023-06-26T05:02:35;21.45;;;19.55;;
22881;SDS011;11608;50.894;5.296;2023-06-26T05:05:02;21.38;;;19.75;;
22881;SDS011;11608;50.894;5.296;2023-06-26T05:07:28;22.13;;;20.10;;
22881;SDS011;11608;50.894;5.296;2023-06-26T05:09:54;21.85;;;19.92;;
22881;SDS011;11608;50.894;5.296;2023-06-26T05:12:20;21.17;;;19.23;;
22881;SDS011;11608;50.894;5.296;2023-06-26T05:14:48;21.20;;;19.40;;
22881;SDS011;11608;50.894;5.296;2023-06-26T05:17:14;21.45;;;19.60;;
22881;SDS011;11608;50.894;5.296;2023-06-26T05:19:40;21.52;;;19.63;;
22881;SDS011;11608;50.894;5.296;2023-06-26T05:22:07;20.85;;;19.10;;
22881;SDS011;11608;50.894;5.296;2023-06-26T05:24:37;22.02;;;20.20;;
22881;SDS011;11608;50.894;5.296;2023-06-26T05:27:03;21.77;;;19.83;;
22881;SDS011;11608;50.894;5.296;2023-06-26T05:29:33;21.45;;;19.55;;
22881;SDS011;11608;50.894;5.296;2023-06-26T05:31:59;21.65;;;19.70;;
22881;SDS011;11608;50.894;5.296;2023-06-26T05:34:27;21.38;;;19.48;;
22881;SDS011;11608;50.894;5.296;2023-06-26T05:36:57;21.52;;;19.58;;
22881;SDS011;11608;50.894;5.296;2023-06-26T05:39:24;22.23;;;20.13;;
22881;SDS011;11608;50.894;5.296;2023-06-26T05:41:50;21.48;;;19.40;;
22881;SDS011;11608;50.894;5.296;2023-06-26T05:44:16;20.92;;;19.17;;
22881;SDS011;11608;50.894;5.296;2023-06-26T05:46:43;21.55;;;19.40;;
22881;SDS011;11608;50.894;5.296;2023-06-26T05:49:09;21.67;;;19.83;;
22881;SDS011;11608;50.894;5.296;2023-06-26T05:51:35;21.35;;;19.25;;
22881;SDS011;11608;50.894;5.296;2023-06-26T05:54:01;21.52;;;19.73;;
22881;SDS011;11608;50.894;5.296;2023-06-26T05:56:30;21.58;;;19.55;;
22881;SDS011;11608;50.894;5.296;2023-06-26T05:58:56;20.52;;;18.73;;
22881;SDS011;11608;50.894;5.296;2023-06-26T06:01:23;20.50;;;18.80;;
22881;SDS011;11608;50.894;5.296;2023-06-26T06:03:49;20.33;;;18.73;;
22881;SDS011;11608;50.894;5.296;2023-06-26T06:06:15;20.67;;;18.85;;
22881;SDS011;11608;50.894;5.296;2023-06-26T06:08:41;20.65;;;18.65;;
22881;SDS011;11608;50.894;5.296;2023-06-26T06:11:07;20.90;;;19.10;;
22881;SDS011;11608;50.894;5.296;2023-06-26T06:13:34;21.42;;;19.30;;
22881;SDS011;11608;50.894;5.296;2023-06-26T06:16:00;20.33;;;18.65;;
22881;SDS011;11608;50.894;5.296;2023-06-26T06:18:26;21.67;;;19.58;;
22881;SDS011;11608;50.894;5.296;2023-06-26T06:20:52;19.88;;;18.02;;
22881;SDS011;11608;50.894;5.296;2023-06-26T06:23:18;21.25;;;19.33;;
22881;SDS011;11608;50.894;5.296;2023-06-26T06:25:44;20.92;;;19.23;;
22881;SDS011;11608;50.894;5.296;2023-06-26T06:28:10;21.15;;;19.27;;
22881;SDS011;11608;50.894;5.296;2023-06-26T06:30:36;21.65;;;19.80;;
22881;SDS011;11608;50.894;5.296;2023-06-26T06:33:02;21.10;;;18.95;;
22881;SDS011;11608;50.894;5.296;2023-06-26T06:35:31;21.02;;;19.13;;
22881;SDS011;11608;50.894;5.296;2023-06-26T06:37:57;21.13;;;19.13;;
22881;SDS011;11608;50.894;5.296;2023-06-26T06:40:23;22.00;;;19.65;;
22881;SDS011;11608;50.894;5.296;2023-06-26T06:42:50;20.50;;;18.90;;
22881;SDS011;11608;50.894;5.296;2023-06-26T06:45:17;20.40;;;18.63;;
22881;SDS011;11608;50.894;5.296;2023-06-26T06:47:43;21.42;;;19.45;;
22881;SDS011;11608;50.894;5.296;2023-06-26T06:50:09;21.52;;;19.33;;
22881;SDS011;11608;50.894;5.296;2023-06-26T06:52:36;22.20;;;20.02;;
22881;SDS011;11608;50.894;5.296;2023-06-26T06:55:03;22.00;;;19.90;;
22881;SDS011;11608;50.894;5.296;2023-06-26T06:57:32;21.88;;;19.92;;
22881;SDS011;11608;50.894;5.296;2023-06-26T07:00:02;22.67;;;20.35;;
22881;SDS011;11608;50.894;5.296;2023-06-26T07:02:29;21.45;;;19.30;;
22881;SDS011;11608;50.894;5.296;2023-06-26T07:04:55;23.35;;;20.27;;
22881;SDS011;11608;50.894;5.296;2023-06-26T07:07:28;21.15;;;19.35;;
22881;SDS011;11608;50.894;5.296;2023-06-26T07:09:56;21.00;;;19.17;;
22881;SDS011;11608;50.894;5.296;2023-06-26T07:12:23;22.42;;;20.05;;
22881;SDS011;11608;50.894;5.296;2023-06-26T07:14:52;21.17;;;19.05;;
22881;SDS011;11608;50.894;5.296;2023-06-26T07:17:21;21.23;;;19.40;;
22881;SDS011;11608;50.894;5.296;2023-06-26T07:19:49;21.17;;;19.10;;
22881;SDS011;11608;50.894;5.296;2023-06-26T07:22:15;20.60;;;18.63;;
22881;SDS011;11608;50.894;5.296;2023-06-26T07:24:43;20.33;;;18.80;;
22881;SDS011;11608;50.894;5.296;2023-06-26T07:27:10;21.23;;;19.25;;
22881;SDS011;11608;50.894;5.296;2023-06-26T07:29:36;20.98;;;19.20;;
22881;SDS011;11608;50.894;5.296;2023-06-26T07:32:02;20.40;;;18.38;;
22881;SDS011;11608;50.894;5.296;2023-06-26T07:34:28;19.98;;;18.23;;
22881;SDS011;11608;50.894;5.296;2023-06-26T07:36:54;20.58;;;18.40;;
22881;SDS011;11608;50.894;5.296;2023-06-26T07:39:20;19.83;;;18.23;;
22881;SDS011;11608;50.894;5.296;2023-06-26T07:41:46;21.23;;;19.10;;
22881;SDS011;11608;50.894;5.296;2023-06-26T07:44:12;21.15;;;19.05;;
22881;SDS011;11608;50.894;5.296;2023-06-26T07:46:41;20.60;;;18.67;;
22881;SDS011;11608;50.894;5.296;2023-06-26T07:49:10;20.60;;;18.42;;
22881;SDS011;11608;50.894;5.296;2023-06-26T07:51:36;19.88;;;18.17;;
22881;SDS011;11608;50.894;5.296;2023-06-26T07:54:02;21.27;;;19.20;;
22881;SDS011;11608;50.894;5.296;2023-06-26T07:56:29;20.48;;;18.65;;
22881;SDS011;11608;50.894;5.296;2023-06-26T07:58:55;20.33;;;18.52;;
22881;SDS011;11608;50.894;5.296;2023-06-26T08:01:23;19.65;;;18.05;;
22881;SDS011;11608;50.894;5.296;2023-06-26T08:03:57;20.30;;;18.65;;
22881;SDS011;11608;50.894;5.296;2023-06-26T08:09:04;19.92;;;18.23;;
22881;SDS011;11608;50.894;5.296;2023-06-26T08:11:36;19.90;;;18.27;;
22881;SDS011;11608;50.894;5.296;2023-06-26T08:14:05;20.73;;;18.67;;
22881;SDS011;11608;50.894;5.296;2023-06-26T08:16:36;21.23;;;19.08;;
22881;SDS011;11608;50.894;5.296;2023-06-26T08:19:12;20.27;;;18.65;;
22881;SDS011;11608;50.894;5.296;2023-06-26T08:24:09;20.50;;;18.60;;
22881;SDS011;11608;50.894;5.296;2023-06-26T08:26:53;22.02;;;19.13;;
22881;SDS011;11608;50.894;5.296;2023-06-26T08:29:19;21.35;;;19.42;;
22881;SDS011;11608;50.894;5.296;2023-06-26T08:31:45;20.52;;;18.80;;
22881;SDS011;11608;50.894;5.296;2023-06-26T08:34:11;20.17;;;18.30;;
22881;SDS011;11608;50.894;5.296;2023-06-26T08:36:38;20.98;;;18.98;;
22881;SDS011;11608;50.894;5.296;2023-06-26T08:39:06;21.00;;;19.20;;
22881;SDS011;11608;50.894;5.296;2023-06-26T08:41:35;20.67;;;19.05;;
22881;SDS011;11608;50.894;5.296;2023-06-26T08:44:01;20.17;;;18.42;;
22881;SDS011;11608;50.894;5.296;2023-06-26T08:46:28;20.92;;;19.02;;
22881;SDS011;11608;50.894;5.296;2023-06-26T08:49:05;20.10;;;18.05;;
22881;SDS011;11608;50.894;5.296;2023-06-26T08:51:34;20.17;;;18.35;;
22881;SDS011;11608;50.894;5.296;2023-06-26T08:54:07;21.15;;;18.58;;
22881;SDS011;11608;50.894;5.296;2023-06-26T08:56:38;20.95;;;19.17;;
22881;SDS011;11608;50.894;5.296;2023-06-26T08:59:06;20.80;;;18.90;;
22881;SDS011;11608;50.894;5.296;2023-06-26T09:01:33;21.30;;;19.30;;
22881;SDS011;11608;50.894;5.296;2023-06-26T09:04:02;19.90;;;18.27;;
22881;SDS011;11608;50.894;5.296;2023-06-26T09:06:28;19.65;;;17.60;;
22881;SDS011;11608;50.894;5.296;2023-06-26T09:09:01;20.17;;;18.30;;
22881;SDS011;11608;50.894;5.296;2023-06-26T09:11:29;19.58;;;17.75;;
22881;SDS011;11608;50.894;5.296;2023-06-26T09:14:01;21.00;;;19.20;;
22881;SDS011;11608;50.894;5.296;2023-06-26T09:16:33;20.83;;;18.85;;
22881;SDS011;11608;50.894;5.296;2023-06-26T09:19:08;19.38;;;17.70;;
22881;SDS011;11608;50.894;5.296;2023-06-26T09:21:35;20.92;;;19.00;;
22881;SDS011;11608;50.894;5.296;2023-06-26T09:24:01;20.33;;;18.73;;
22881;SDS011;11608;50.894;5.296;2023-06-26T09:26:27;19.80;;;18.30;;
22881;SDS011;11608;50.894;5.296;2023-06-26T09:28:53;20.20;;;18.50;;
22881;SDS011;11608;50.894;5.296;2023-06-26T09:31:23;19.88;;;18.38;;
22881;SDS011;11608;50.894;5.296;2023-06-26T09:33:49;19.58;;;18.17;;
22881;SDS011;11608;50.894;5.296;2023-06-26T09:36:21;19.20;;;17.50;;
22881;SDS011;11608;50.894;5.296;2023-06-26T09:38:48;20.05;;;18.23;;
22881;SDS011;11608;50.894;5.296;2023-06-26T09:41:17;20.50;;;18.45;;
22881;SDS011;11608;50.894;5.296;2023-06-26T09:43:53;19.45;;;17.85;;
22881;SDS011;11608;50.894;5.296;2023-06-26T09:48:49;18.45;;;17.00;;
22881;SDS011;11608;50.894;5.296;2023-06-26T09:51:16;20.27;;;18.77;;
22881;SDS011;11608;50.894;5.296;2023-06-26T09:53:42;21.42;;;19.90;;
22881;SDS011;11608;50.894;5.296;2023-06-26T09:56:14;19.67;;;18.30;;
22881;SDS011;11608;50.894;5.296;2023-06-26T09:58:42;19.90;;;18.30;;
22881;SDS011;11608;50.894;5.296;2023-06-26T10:01:09;20.02;;;18.33;;
22881;SDS011;11608;50.894;5.296;2023-06-26T10:03:35;19.92;;;18.05;;
22881;SDS011;11608;50.894;5.296;2023-06-26T10:06:02;20.00;;;18.40;;
22881;SDS011;11608;50.894;5.296;2023-06-26T10:08:28;19.30;;;17.90;;
22881;SDS011;11608;50.894;5.296;2023-06-26T10:11:00;19.42;;;17.83;;
22881;SDS011;11608;50.894;5.296;2023-06-26T10:13:34;18.63;;;17.13;;
22881;SDS011;11608;50.894;5.296;2023-06-26T10:16:04;19.75;;;18.33;;
22881;SDS011;11608;50.894;5.296;2023-06-26T10:18:32;19.55;;;17.88;;
22881;SDS011;11608;50.894;5.296;2023-06-26T10:20:58;19.10;;;17.65;;
22881;SDS011;11608;50.894;5.296;2023-06-26T10:23:25;20.42;;;18.90;;
22881;SDS011;11608;50.894;5.296;2023-06-26T10:25:52;20.10;;;18.50;;
22881;SDS011;11608;50.894;5.296;2023-06-26T10:28:20;19.05;;;17.60;;
22881;SDS011;11608;50.894;5.296;2023-06-26T10:30:48;19.55;;;18.05;;
22881;SDS011;11608;50.894;5.296;2023-06-26T10:33:15;20.20;;;18.67;;
22881;SDS011;11608;50.894;5.296;2023-06-26T10:35:43;18.42;;;16.98;;
22881;SDS011;11608;50.894;5.296;2023-06-26T10:38:11;18.67;;;17.27;;
22881;SDS011;11608;50.894;5.296;2023-06-26T10:40:44;18.63;;;17.33;;
22881;SDS011;11608;50.894;5.296;2023-06-26T10:43:11;19.77;;;17.95;;
22881;SDS011;11608;50.894;5.296;2023-06-26T10:45:47;19.80;;;18.10;;
22881;SDS011;11608;50.894;5.296;2023-06-26T10:48:20;20.05;;;18.55;;
22881;SDS011;11608;50.894;5.296;2023-06-26T10:50:47;19.17;;;17.77;;
22881;SDS011;11608;50.894;5.296;2023-06-26T11:03:38;19.60;;;18.10;;
22881;SDS011;11608;50.894;5.296;2023-06-26T11:06:08;18.77;;;17.38;;
22881;SDS011;11608;50.894;5.296;2023-06-26T11:11:11;19.88;;;18.42;;
22881;SDS011;11608;50.894;5.296;2023-06-26T11:13:39;19.90;;;18.40;;
22881;SDS011;11608;50.894;5.296;2023-06-26T11:16:05;19.10;;;17.50;;
22881;SDS011;11608;50.894;5.296;2023-06-26T11:18:31;18.40;;;17.10;;
22881;SDS011;11608;50.894;5.296;2023-06-26T11:21:09;18.67;;;17.25;;
22881;SDS011;11608;50.894;5.296;2023-06-26T11:23:38;18.13;;;16.75;;
22881;SDS011;11608;50.894;5.296;2023-06-26T11:26:18;18.48;;;16.98;;
22881;SDS011;11608;50.894;5.296;2023-06-26T11:28:47;19.45;;;17.83;;
22881;SDS011;11608;50.894;5.296;2023-06-26T11:31:30;19.67;;;18.08;;
22881;SDS011;11608;50.894;5.296;2023-06-26T11:34:07;20.15;;;18.50;;
22881;SDS011;11608;50.894;5.296;2023-06-26T11:36:35;20.25;;;18.35;;
22881;SDS011;11608;50.894;5.296;2023-06-26T11:39:03;19.15;;;17.70;;
22881;SDS011;11608;50.894;5.296;2023-06-26T11:41:33;18.98;;;17.67;;
22881;SDS011;11608;50.894;5.296;2023-06-26T11:44:05;20.00;;;18.45;;
22881;SDS011;11608;50.894;5.296;2023-06-26T11:46:33;19.70;;;18.30;;
22881;SDS011;11608;50.894;5.296;2023-06-26T11:48:59;19.40;;;17.90;;
22881;SDS011;11608;50.894;5.296;2023-06-26T11:51:28;19.30;;;17.80;;
22881;SDS011;11608;50.894;5.296;2023-06-26T11:53:54;19.70;;;18.30;;
22881;SDS011;11608;50.894;5.296;2023-06-26T11:56:21;20.15;;;18.45;;
22881;SDS011;11608;50.894;5.296;2023-06-26T11:59:08;20.45;;;18.60;;
22881;SDS011;11608;50.894;5.296;2023-06-26T12:01:35;19.90;;;18.20;;
22881;SDS011;11608;50.894;5.296;2023-06-26T12:04:05;19.65;;;18.08;;
22881;SDS011;11608;50.894;5.296;2023-06-26T12:06:36;18.98;;;17.58;;
22881;SDS011;11608;50.894;5.296;2023-06-26T12:09:03;18.65;;;17.35;;
22881;SDS011;11608;50.894;5.296;2023-06-26T12:11:30;19.33;;;17.83;;
22881;SDS011;11608;50.894;5.296;2023-06-26T12:13:57;18.67;;;17.20;;
22881;SDS011;11608;50.894;5.296;2023-06-26T12:16:23;18.90;;;17.45;;
22881;SDS011;11608;50.894;5.296;2023-06-26T12:18:54;19.25;;;17.92;;
22881;SDS011;11608;50.894;5.296;2023-06-26T12:21:34;18.98;;;17.58;;
22881;SDS011;11608;50.894;5.296;2023-06-26T12:24:10;19.38;;;17.90;;
22881;SDS011;11608;50.894;5.296;2023-06-26T12:26:36;17.98;;;16.60;;
22881;SDS011;11608;50.894;5.296;2023-06-26T12:29:08;19.60;;;18.10;;
22881;SDS011;11608;50.894;5.296;2023-06-26T12:31:34;19.52;;;18.10;;
22881;SDS011;11608;50.894;5.296;2023-06-26T12:34:01;19.38;;;17.88;;
22881;SDS011;11608;50.894;5.296;2023-06-26T12:36:27;18.92;;;17.23;;
22881;SDS011;11608;50.894;5.296;2023-06-26T12:38:53;18.02;;;16.73;;
22881;SDS011;11608;50.894;5.296;2023-06-26T12:41:20;19.35;;;17.85;;
22881;SDS011;11608;50.894;5.296;2023-06-26T12:43:49;17.83;;;16.63;;
22881;SDS011;11608;50.894;5.296;2023-06-26T12:46:21;18.55;;;17.25;;
22881;SDS011;11608;50.894;5.296;2023-06-26T12:48:58;19.88;;;18.48;;
22881;SDS011;11608;50.894;5.296;2023-06-26T12:51:25;20.55;;;18.83;;
22881;SDS011;11608;50.894;5.296;2023-06-26T12:53:55;19.52;;;18.20;;
22881;SDS011;11608;50.894;5.296;2023-06-26T12:56:21;20.05;;;18.45;;
22881;SDS011;11608;50.894;5.296;2023-06-26T12:58:47;18.40;;;17.10;;
22881;SDS011;11608;50.894;5.296;2023-06-26T13:01:13;18.30;;;16.98;;
22881;SDS011;11608;50.894;5.296;2023-06-26T13:03:39;19.10;;;17.67;;
22881;SDS011;11608;50.894;5.296;2023-06-26T13:06:08;19.60;;;18.10;;
22881;SDS011;11608;50.894;5.296;2023-06-26T13:08:34;18.58;;;17.38;;
22881;SDS011;11608;50.894;5.296;2023-06-26T13:11:00;19.13;;;17.83;;
22881;SDS011;11608;50.894;5.296;2023-06-26T13:13:27;18.42;;;16.92;;
22881;SDS011;11608;50.894;5.296;2023-06-26T13:15:53;18.58;;;17.00;;
22881;SDS011;11608;50.894;5.296;2023-06-26T13:18:22;19.23;;;17.38;;
22881;SDS011;11608;50.894;5.296;2023-06-26T13:20:50;19.85;;;18.25;;
22881;SDS011;11608;50.894;5.296;2023-06-26T13:23:19;20.05;;;18.55;;
22881;SDS011;11608;50.894;5.296;2023-06-26T13:25:45;19.33;;;17.75;;
22881;SDS011;11608;50.894;5.296;2023-06-26T13:28:11;18.48;;;17.17;;
22881;SDS011;11608;50.894;5.296;2023-06-26T13:30:37;18.50;;;17.02;;
22881;SDS011;11608;50.894;5.296;2023-06-26T13:33:03;18.33;;;16.92;;
22881;SDS011;11608;50.894;5.296;2023-06-26T13:35:29;19.00;;;17.70;;
22881;SDS011;11608;50.894;5.296;2023-06-26T13:38:00;19.52;;;17.95;;
22881;SDS011;11608;50.894;5.296;2023-06-26T13:40:26;18.95;;;17.55;;
22881;SDS011;11608;50.894;5.296;2023-06-26T13:42:53;20.42;;;18.90;;
22881;SDS011;11608;50.894;5.296;2023-06-26T13:45:19;18.45;;;17.25;;
22881;SDS011;11608;50.894;5.296;2023-06-26T13:47:45;19.25;;;17.75;;
22881;SDS011;11608;50.894;5.296;2023-06-26T13:50:11;19.50;;;18.00;;
22881;SDS011;11608;50.894;5.296;2023-06-26T13:52:37;20.02;;;18.33;;
22881;SDS011;11608;50.894;5.296;2023-06-26T13:55:06;19.38;;;18.00;;
22881;SDS011;11608;50.894;5.296;2023-06-26T13:57:33;19.67;;;18.17;;
22881;SDS011;11608;50.894;5.296;2023-06-26T13:59:59;20.15;;;18.65;;
22881;SDS011;11608;50.894;5.296;2023-06-26T14:02:25;19.70;;;18.30;;
22881;SDS011;11608;50.894;5.296;2023-06-26T14:04:51;20.50;;;18.67;;
22881;SDS011;11608;50.894;5.296;2023-06-26T14:07:20;19.45;;;18.00;;
22881;SDS011;11608;50.894;5.296;2023-06-26T14:09:48;19.40;;;18.00;;
22881;SDS011;11608;50.894;5.296;2023-06-26T14:12:14;20.35;;;18.85;;
22881;SDS011;11608;50.894;5.296;2023-06-26T14:14:41;19.63;;;18.27;;
22881;SDS011;11608;50.894;5.296;2023-06-26T14:17:07;19.58;;;18.13;;
22881;SDS011;11608;50.894;5.296;2023-06-26T14:19:35;19.10;;;17.80;;
22881;SDS011;11608;50.894;5.296;2023-06-26T14:22:11;19.55;;;18.10;;
22881;SDS011;11608;50.894;5.296;2023-06-26T14:24:37;20.02;;;18.42;;
22881;SDS011;11608;50.894;5.296;2023-06-26T14:27:13;18.30;;;16.95;;
22881;SDS011;11608;50.894;5.296;2023-06-26T14:29:41;18.60;;;17.05;;
22881;SDS011;11608;50.894;5.296;2023-06-26T14:32:10;18.77;;;17.40;;
22881;SDS011;11608;50.894;5.296;2023-06-26T14:34:36;17.95;;;16.65;;
22881;SDS011;11608;50.894;5.296;2023-06-26T14:37:02;18.65;;;17.25;;
22881;SDS011;11608;50.894;5.296;2023-06-26T14:39:29;20.08;;;18.30;;
22881;SDS011;11608;50.894;5.296;2023-06-26T14:41:55;19.33;;;17.55;;
22881;SDS011;11608;50.894;5.296;2023-06-26T14:44:21;18.60;;;17.17;;
22881;SDS011;11608;50.894;5.296;2023-06-26T14:46:47;18.90;;;17.38;;
22881;SDS011;11608;50.894;5.296;2023-06-26T14:49:13;19.25;;;17.38;;
22881;SDS011;11608;50.894;5.296;2023-06-26T14:51:39;18.27;;;16.98;;
22881;SDS011;11608;50.894;5.296;2023-06-26T14:54:06;20.58;;;18.75;;